createdAt,value
2023-05-19T00:01:00.660Z,101493.34
2023-05-19T00:03:28.921Z,101494.32
2023-05-19T00:05:57.431Z,101495.54
2023-05-19T00:08:25.795Z,101492.86
2023-05-19T00:10:53.825Z,101494.61
2023-05-19T00:13:22.023Z,101493.61
2023-05-19T00:15:51.063Z,101492.52
2023-05-19T00:18:18.947Z,101491.57
2023-05-19T00:20:46.738Z,101492.49
2023-05-19T00:23:14.539Z,101496.42
2023-05-19T00:25:42.978Z,101491.41
2023-05-19T00:28:10.858Z,101491.96
2023-05-19T00:30:38.605Z,101485.70
2023-05-19T00:33:06.399Z,101488.53
2023-05-19T00:35:34.344Z,101485.43
2023-05-19T00:38:02.223Z,101486.62
2023-05-19T00:40:32.194Z,101488.02
2023-05-19T00:43:00.557Z,101485.23
2023-05-19T00:45:29.084Z,101485.75
2023-05-19T00:47:57.229Z,101482.52
2023-05-19T00:50:25.155Z,101482.21
2023-05-19T00:52:53.303Z,101476.95
2023-05-19T00:55:28.275Z,101476.11
2023-05-19T00:57:57.016Z,101477.23
2023-05-19T01:00:24.816Z,101475.23
2023-05-19T01:02:54.216Z,101474.55
2023-05-19T01:05:22.671Z,101471.63
2023-05-19T01:07:56.491Z,101473.09
2023-05-19T01:10:24.377Z,101470.18
2023-05-19T01:12:52.253Z,101467.18
2023-05-19T01:15:20.266Z,101465.85
2023-05-19T01:17:56.036Z,101468.71
2023-05-19T01:20:36.042Z,101464.23
2023-05-19T01:23:15.136Z,101464.71
2023-05-19T01:26:09.800Z,101463.67
2023-05-19T01:28:56.702Z,101462.73
2023-05-19T01:31:26.813Z,101463.01
2023-05-19T01:33:55.269Z,101460.98
2023-05-19T01:36:23.591Z,101456.23
2023-05-19T01:38:53.974Z,101453.81
2023-05-19T01:41:23.068Z,101451.32
2023-05-19T01:43:51.396Z,101449.48
2023-05-19T01:46:19.377Z,101448.36
2023-05-19T01:48:48.370Z,101445.33
2023-05-19T01:51:16.274Z,101446.65
2023-05-19T01:53:44.172Z,101448.44
2023-05-19T01:56:21.613Z,101447.70
2023-05-19T01:58:57.756Z,101449.95
2023-05-19T02:01:52.042Z,101452.56
2023-05-19T02:04:49.323Z,101454.00
2023-05-19T02:07:42.685Z,101451.20
2023-05-19T02:10:14.758Z,101449.06
2023-05-19T02:12:44.891Z,101447.11
2023-05-19T02:15:18.113Z,101442.27
2023-05-19T02:17:50.729Z,101442.30
2023-05-19T02:20:18.997Z,101442.12
2023-05-19T02:22:46.807Z,101436.17
2023-05-19T02:25:14.735Z,101431.85
2023-05-19T02:27:42.589Z,101438.51
2023-05-19T02:30:10.973Z,101437.74
2023-05-19T02:32:38.787Z,101435.64
2023-05-19T02:35:06.816Z,101434.13
2023-05-19T02:37:35.462Z,101435.30
2023-05-19T02:40:04.227Z,101435.06
2023-05-19T02:42:32.054Z,101435.88
2023-05-19T02:45:00.911Z,101440.16
2023-05-19T02:47:28.725Z,101441.55
2023-05-19T02:49:56.531Z,101443.42
2023-05-19T02:52:24.326Z,101443.30
2023-05-19T02:54:52.129Z,101443.95
2023-05-19T02:57:19.988Z,101441.80
2023-05-19T02:59:48.050Z,101439.02
2023-05-19T03:02:15.933Z,101442.33
2023-05-19T03:04:43.964Z,101445.23
2023-05-19T03:07:13.577Z,101443.08
2023-05-19T03:09:41.724Z,101445.59
2023-05-19T03:12:09.501Z,101447.55
2023-05-19T03:14:38.689Z,101447.65
2023-05-19T03:17:10.408Z,101447.23
2023-05-19T03:19:38.207Z,101452.68
2023-05-19T03:22:06.606Z,101451.53
2023-05-19T03:24:34.519Z,101451.86
2023-05-19T03:27:02.789Z,101456.22
2023-05-19T03:29:31.146Z,101453.55
2023-05-19T03:31:59.991Z,101452.30
2023-05-19T03:34:27.960Z,101455.34
2023-05-19T03:36:55.808Z,101455.22
2023-05-19T03:39:23.676Z,101456.90
2023-05-19T03:41:51.580Z,101458.45
2023-05-19T03:44:19.496Z,101459.44
2023-05-19T03:46:47.277Z,101456.44
2023-05-19T03:49:28.845Z,101454.45
2023-05-19T03:52:14.105Z,101451.91
2023-05-19T03:54:42.799Z,101450.60
2023-05-19T03:57:13.849Z,101452.30
2023-05-19T03:59:41.972Z,101451.59
2023-05-19T04:02:09.780Z,101451.14
2023-05-19T04:04:38.185Z,101448.02
2023-05-19T04:07:07.206Z,101447.83
2023-05-19T04:09:35.751Z,101450.48
2023-05-19T04:12:03.719Z,101451.86
2023-05-19T04:14:31.442Z,101455.16
2023-05-19T04:16:59.936Z,101450.98
2023-05-19T04:19:27.983Z,101449.54
2023-05-19T04:21:57.099Z,101450.48
2023-05-19T04:24:24.958Z,101445.45
2023-05-19T04:26:53.316Z,101446.77
2023-05-19T04:29:23.501Z,101450.89
2023-05-19T04:31:52.860Z,101451.98
2023-05-19T04:34:20.856Z,101452.88
2023-05-19T04:36:51.003Z,101450.38
2023-05-19T04:39:21.706Z,101448.83
2023-05-19T04:41:49.555Z,101450.41
2023-05-19T04:44:18.479Z,101453.23
2023-05-19T04:46:46.394Z,101452.09
2023-05-19T04:49:14.688Z,101452.06
2023-05-19T04:51:42.567Z,101450.70
2023-05-19T04:54:10.417Z,101453.75
2023-05-19T04:56:38.127Z,101451.86
2023-05-19T04:59:06.994Z,101457.55
2023-05-19T05:01:35.604Z,101454.94
2023-05-19T05:04:03.724Z,101456.86
2023-05-19T05:06:31.858Z,101453.04
2023-05-19T05:09:03.982Z,101458.98
2023-05-19T05:11:32.100Z,101461.06
2023-05-19T05:14:00.201Z,101459.00
2023-05-19T05:16:28.346Z,101457.45
2023-05-19T05:18:57.595Z,101455.84
2023-05-19T05:21:26.244Z,101452.65
2023-05-19T05:23:54.620Z,101455.30
2023-05-19T05:26:23.350Z,101456.02
2023-05-19T05:28:51.133Z,101455.05
2023-05-19T05:31:19.026Z,101460.04
2023-05-19T05:33:46.873Z,101459.36
2023-05-19T05:36:14.818Z,101459.35
2023-05-19T05:38:43.126Z,101460.09
2023-05-19T05:41:11.609Z,101460.12
2023-05-19T05:43:39.962Z,101458.52
2023-05-19T05:46:08.171Z,101459.60
2023-05-19T05:48:37.086Z,101458.83
2023-05-19T05:51:06.131Z,101460.02
2023-05-19T05:53:40.706Z,101458.05
2023-05-19T05:56:10.839Z,101459.18
2023-05-19T05:58:41.077Z,101459.69
2023-05-19T06:01:11.872Z,101455.20
2023-05-19T06:03:45.067Z,101459.25
2023-05-19T06:06:13.388Z,101455.48
2023-05-19T06:08:41.281Z,101457.50
2023-05-19T06:11:09.465Z,101456.66
2023-05-19T06:13:37.559Z,101459.13
2023-05-19T06:16:06.210Z,101461.18
2023-05-19T06:18:34.007Z,101459.10
2023-05-19T06:21:01.890Z,101463.17
2023-05-19T06:23:30.906Z,101463.77
2023-05-19T06:25:58.803Z,101466.98
2023-05-19T06:28:26.601Z,101468.48
2023-05-19T06:30:54.418Z,101469.73
2023-05-19T06:33:22.250Z,101470.18
2023-05-19T06:35:50.138Z,101466.02
2023-05-19T06:38:18.234Z,101466.51
2023-05-19T06:40:46.056Z,101466.17
2023-05-19T06:43:13.845Z,101466.64
2023-05-19T06:45:41.585Z,101469.01
2023-05-19T06:48:09.456Z,101467.63
2023-05-19T06:50:37.519Z,101466.77
2023-05-19T06:53:06.141Z,101461.06
2023-05-19T06:55:37.132Z,101463.39
2023-05-19T06:58:10.489Z,101461.91
2023-05-19T07:00:38.338Z,101459.86
2023-05-19T07:03:06.375Z,101461.11
2023-05-19T07:05:34.204Z,101458.34
2023-05-19T07:08:02.150Z,101458.69
2023-05-19T07:10:32.226Z,101459.51
2023-05-19T07:13:00.192Z,101457.99
2023-05-19T07:15:28.021Z,101457.64
2023-05-19T07:17:55.908Z,101456.43
2023-05-19T07:20:23.721Z,101456.17
2023-05-19T07:22:51.598Z,101451.77
2023-05-19T07:25:22.188Z,101454.55
2023-05-19T07:27:51.883Z,101455.94
2023-05-19T07:30:19.596Z,101452.91
2023-05-19T07:32:47.480Z,101454.88
2023-05-19T07:35:15.595Z,101453.75
2023-05-19T07:37:43.490Z,101452.13
2023-05-19T07:40:11.646Z,101453.20
2023-05-19T07:42:39.420Z,101455.98
2023-05-19T07:45:07.942Z,101454.02
2023-05-19T07:47:35.724Z,101458.02
2023-05-19T07:50:04.531Z,101456.12
2023-05-19T07:52:32.473Z,101459.04
2023-05-19T07:55:00.499Z,101458.06
2023-05-19T07:57:28.334Z,101459.45
2023-05-19T07:59:56.654Z,101456.89
2023-05-19T08:02:24.686Z,101455.10
2023-05-19T08:04:53.229Z,101452.85
2023-05-19T08:07:21.078Z,101454.06
2023-05-19T08:09:49.317Z,101457.06
2023-05-19T08:12:17.171Z,101451.50
2023-05-19T08:14:44.916Z,101449.52
2023-05-19T08:17:12.754Z,101450.02
2023-05-19T08:19:40.490Z,101448.64
2023-05-19T08:22:08.188Z,101448.69
2023-05-19T08:24:36.110Z,101446.90
2023-05-19T08:27:04.895Z,101448.20
2023-05-19T08:29:32.848Z,101452.88
2023-05-19T08:32:02.485Z,101453.45
2023-05-19T08:34:30.284Z,101454.48
2023-05-19T08:36:58.289Z,101453.58
2023-05-19T08:39:28.994Z,101455.30
2023-05-19T08:41:56.696Z,101456.77
2023-05-19T08:44:24.575Z,101454.16
2023-05-19T08:46:55.411Z,101454.85
2023-05-19T08:49:32.493Z,101452.98
2023-05-19T08:52:17.301Z,101463.54
2023-05-19T08:55:00.857Z,101462.22
2023-05-19T08:57:29.090Z,101463.98
2023-05-19T08:59:58.344Z,101457.36
2023-05-19T09:02:27.532Z,101458.28
2023-05-19T09:04:56.663Z,101458.80
2023-05-19T09:07:26.197Z,101455.69
2023-05-19T09:09:54.106Z,101454.11
2023-05-19T09:12:23.149Z,101456.85
2023-05-19T09:14:55.029Z,101457.67
2023-05-19T09:17:23.574Z,101458.41
2023-05-19T09:19:51.574Z,101457.55
2023-05-19T09:22:20.685Z,101458.00
2023-05-19T09:24:49.293Z,101454.48
2023-05-19T09:27:26.275Z,101454.59
2023-05-19T09:29:54.019Z,101454.61
2023-05-19T09:32:26.900Z,101453.55
2023-05-19T09:34:55.275Z,101452.77
2023-05-19T09:37:24.470Z,101451.53
2023-05-19T09:39:53.504Z,101452.82
2023-05-19T09:42:30.193Z,101454.92
2023-05-19T09:45:02.640Z,101458.98
2023-05-19T09:47:41.442Z,101455.32
2023-05-19T09:50:11.901Z,101459.73
2023-05-19T09:52:41.074Z,101459.92
2023-05-19T09:55:13.595Z,101463.23
2023-05-19T09:57:41.712Z,101461.39
2023-05-19T10:00:19.926Z,101463.39
2023-05-19T10:02:48.872Z,101453.79
2023-05-19T10:05:20.397Z,101452.58
2023-05-19T10:07:52.993Z,101454.12
2023-05-19T10:10:22.870Z,101451.97
2023-05-19T10:12:50.998Z,101454.70
2023-05-19T10:15:29.901Z,101454.16
2023-05-19T10:17:59.563Z,101452.30
2023-05-19T10:20:28.799Z,101455.88
2023-05-19T10:22:57.810Z,101455.91
2023-05-19T10:25:25.799Z,101451.42
2023-05-19T10:27:59.747Z,101445.45
2023-05-19T10:30:34.577Z,101447.11
2023-05-19T10:33:07.772Z,101443.98
2023-05-19T10:36:09.204Z,101443.25
2023-05-19T10:38:48.274Z,101441.04
2023-05-19T10:41:34.071Z,101441.13
2023-05-19T10:44:21.397Z,101441.88
2023-05-19T10:46:49.181Z,101441.08
2023-05-19T10:49:23.338Z,101440.13
2023-05-19T10:51:56.698Z,101443.01
2023-05-19T10:54:46.553Z,101441.92
2023-05-19T10:57:17.487Z,101443.98
2023-05-19T10:59:45.436Z,101444.90
2023-05-19T11:02:41.534Z,101445.64
2023-05-19T11:05:18.066Z,101447.58
2023-05-19T11:07:57.354Z,101448.52
2023-05-19T11:10:27.369Z,101446.70
2023-05-19T11:15:27.954Z,101447.05
2023-05-19T11:17:56.156Z,101441.88
2023-05-19T11:20:28.904Z,101443.14
2023-05-19T11:23:14.681Z,101443.00
2023-05-19T11:25:51.282Z,101445.19
2023-05-19T11:28:25.571Z,101447.34
2023-05-19T11:30:55.262Z,101449.92
2023-05-19T11:33:27.136Z,101446.33
2023-05-19T11:35:58.490Z,101443.89
2023-05-19T11:38:28.567Z,101443.65
2023-05-19T11:40:56.795Z,101445.70
2023-05-19T11:43:25.921Z,101442.04
2023-05-19T11:45:55.122Z,101437.78
2023-05-19T11:48:23.784Z,101440.13
2023-05-19T11:50:52.457Z,101442.27
2023-05-19T11:53:21.065Z,101442.75
2023-05-19T11:55:49.618Z,101444.85
2023-05-19T11:58:17.722Z,101445.62
2023-05-19T12:00:47.678Z,101442.79
2023-05-19T12:03:17.419Z,101447.73
2023-05-19T12:05:48.401Z,101446.84
2023-05-19T12:08:18.910Z,101447.14
2023-05-19T12:10:53.870Z,101448.42
2023-05-19T12:13:22.907Z,101445.33
2023-05-19T12:15:53.029Z,101442.63
2023-05-19T12:18:21.589Z,101445.17
2023-05-19T12:20:49.750Z,101445.09
2023-05-19T12:23:17.726Z,101444.43
2023-05-19T12:25:45.752Z,101446.66
2023-05-19T12:28:14.020Z,101441.36
2023-05-19T12:30:51.808Z,101440.31
2023-05-19T12:33:19.796Z,101437.61
2023-05-19T12:35:50.009Z,101438.56
2023-05-19T12:38:19.799Z,101438.45
2023-05-19T12:40:47.573Z,101440.58
2023-05-19T12:43:22.557Z,101443.63
2023-05-19T12:45:50.291Z,101442.04
2023-05-19T12:48:19.108Z,101440.65
2023-05-19T12:50:47.096Z,101440.47
2023-05-19T12:53:15.361Z,101440.15
2023-05-19T12:55:45.124Z,101432.95
2023-05-19T12:58:13.713Z,101438.14
2023-05-19T13:00:43.865Z,101435.29
2023-05-19T13:03:17.131Z,101438.33
2023-05-19T13:05:47.405Z,101436.44
2023-05-19T13:08:20.336Z,101436.32
2023-05-19T13:10:51.533Z,101437.29
2023-05-19T13:13:19.452Z,101431.74
2023-05-19T13:15:50.604Z,101431.98
2023-05-19T13:18:18.925Z,101431.33
2023-05-19T13:20:49.312Z,101432.55
2023-05-19T13:23:17.277Z,101430.80
2023-05-19T13:25:45.473Z,101432.89
2023-05-19T13:28:16.170Z,101437.45
2023-05-19T13:30:45.034Z,101438.77
2023-05-19T13:33:12.978Z,101439.23
2023-05-19T13:35:40.896Z,101441.75
2023-05-19T13:38:10.278Z,101441.25
2023-05-19T13:40:40.230Z,101444.59
2023-05-19T13:43:09.025Z,101442.13
2023-05-19T13:45:37.124Z,101442.63
2023-05-19T13:48:07.298Z,101439.60
2023-05-19T13:50:35.740Z,101436.97
2023-05-19T13:53:03.887Z,101440.06
2023-05-19T13:55:32.735Z,101437.46
2023-05-19T13:58:00.714Z,101440.33
2023-05-19T14:00:28.563Z,101434.73
2023-05-19T14:02:56.689Z,101428.31
2023-05-19T14:05:24.524Z,101429.45
2023-05-19T14:07:52.483Z,101428.26
2023-05-19T14:10:21.894Z,101426.79
2023-05-19T14:13:25.310Z,101428.29
2023-05-19T14:15:38.479Z,101427.33
2023-05-19T14:18:07.393Z,101429.84
2023-05-19T14:20:36.199Z,101428.04
2023-05-19T14:23:04.392Z,101429.25
2023-05-19T14:25:32.409Z,101430.56
2023-05-19T14:28:00.302Z,101432.61
2023-05-19T14:30:28.159Z,101439.27
2023-05-19T14:32:56.355Z,101434.00
2023-05-19T14:35:25.354Z,101433.43
2023-05-19T14:37:53.313Z,101440.09
2023-05-19T14:40:21.349Z,101438.12
2023-05-19T14:42:49.000Z,101441.18
2023-05-19T14:45:16.888Z,101438.84
2023-05-19T14:47:44.689Z,101440.56
2023-05-19T14:50:12.494Z,101436.45
2023-05-19T14:52:42.917Z,101435.30
2023-05-19T14:55:11.453Z,101432.63
2023-05-19T14:57:39.187Z,101432.11
2023-05-19T15:00:09.254Z,101429.75
2023-05-19T15:02:37.031Z,101433.41
2023-05-19T15:05:05.268Z,101434.73
2023-05-19T15:07:33.132Z,101433.19
2023-05-19T15:10:02.091Z,101440.10
2023-05-19T15:12:30.254Z,101443.70
2023-05-19T15:14:58.112Z,101442.07
2023-05-19T15:17:26.029Z,101446.91
2023-05-19T15:19:53.923Z,101448.33
2023-05-19T15:22:21.644Z,101450.11
2023-05-19T15:24:49.846Z,101452.80
2023-05-19T15:27:17.681Z,101452.23
2023-05-19T15:29:46.338Z,101451.33
2023-05-19T15:32:15.699Z,101448.08
2023-05-19T15:34:44.964Z,101445.31
2023-05-19T15:37:12.958Z,101444.12
2023-05-19T15:39:40.746Z,101444.77
2023-05-19T15:42:08.639Z,101443.16
2023-05-19T15:44:36.676Z,101438.68
2023-05-19T15:47:04.587Z,101437.77
2023-05-19T15:49:32.278Z,101435.14
2023-05-19T15:51:59.985Z,101434.56
2023-05-19T15:54:27.672Z,101433.62
2023-05-19T15:56:55.482Z,101431.61
2023-05-19T15:59:23.362Z,101432.04
2023-05-19T16:01:53.103Z,101428.59
2023-05-19T16:04:21.356Z,101425.98
2023-05-19T16:06:49.263Z,101422.44
2023-05-19T16:09:16.974Z,101421.59
2023-05-19T16:11:44.700Z,101417.55
2023-05-19T16:14:12.427Z,101418.02
2023-05-19T16:16:40.168Z,101416.65
2023-05-19T16:19:08.197Z,101418.33
2023-05-19T16:21:36.085Z,101419.67
2023-05-19T16:24:04.231Z,101416.17
2023-05-19T16:26:32.045Z,101414.30
2023-05-19T16:29:00.294Z,101415.40
2023-05-19T16:31:28.585Z,101417.63
2023-05-19T16:33:56.821Z,101418.16
2023-05-19T16:36:24.692Z,101418.77
2023-05-19T16:38:53.977Z,101414.31
2023-05-19T16:41:22.903Z,101415.30
2023-05-19T16:43:50.965Z,101414.36
2023-05-19T16:46:20.584Z,101418.94
2023-05-19T16:48:49.143Z,101415.73
2023-05-19T16:51:17.396Z,101416.67
2023-05-19T16:53:45.689Z,101416.86
2023-05-19T16:56:14.056Z,101418.45
2023-05-19T16:58:42.179Z,101416.41
2023-05-19T17:01:12.534Z,101415.77
2023-05-19T17:03:40.789Z,101411.45
2023-05-19T17:06:09.304Z,101410.89
2023-05-19T17:08:37.258Z,101411.77
2023-05-19T17:11:06.602Z,101412.88
2023-05-19T17:13:36.515Z,101411.80
2023-05-19T17:16:04.764Z,101408.55
2023-05-19T17:18:32.498Z,101410.67
2023-05-19T17:21:03.919Z,101412.08
2023-05-19T17:23:32.619Z,101410.09
2023-05-19T17:26:00.557Z,101408.58
2023-05-19T17:28:29.318Z,101409.05
2023-05-19T17:30:57.083Z,101405.31
2023-05-19T17:33:24.828Z,101407.29
2023-05-19T17:35:52.893Z,101406.52
2023-05-19T17:38:20.779Z,101407.71
2023-05-19T17:40:48.540Z,101409.46
2023-05-19T17:43:16.326Z,101408.13
2023-05-19T17:45:44.185Z,101406.65
2023-05-19T17:48:12.212Z,101404.83
2023-05-19T17:50:40.006Z,101407.14
2023-05-19T17:53:07.967Z,101407.76
2023-05-19T17:55:35.957Z,101408.52
2023-05-19T17:58:03.951Z,101410.98
2023-05-19T18:00:33.134Z,101409.39
2023-05-19T18:03:01.930Z,101411.42
2023-05-19T18:05:30.010Z,101414.52
2023-05-19T18:07:59.357Z,101415.35
2023-05-19T18:10:27.974Z,101411.14
2023-05-19T18:12:55.737Z,101415.95
2023-05-19T18:15:24.055Z,101412.81
2023-05-19T18:17:51.880Z,101413.35
2023-05-19T18:20:19.821Z,101414.34
2023-05-19T18:22:47.598Z,101414.09
2023-05-19T18:25:17.030Z,101411.60
2023-05-19T18:27:49.444Z,101414.81
2023-05-19T18:30:17.556Z,101413.97
2023-05-19T18:32:45.459Z,101414.92
2023-05-19T18:35:13.717Z,101417.38
2023-05-19T18:37:41.615Z,101424.04
2023-05-19T18:40:09.952Z,101429.86
2023-05-19T18:42:38.150Z,101433.60
2023-05-19T18:45:06.824Z,101434.53
2023-05-19T18:47:35.009Z,101436.50
2023-05-19T18:50:03.551Z,101441.19
2023-05-19T18:52:32.503Z,101440.67
2023-05-19T18:55:04.354Z,101445.73
2023-05-19T18:57:32.537Z,101443.13
2023-05-19T19:00:01.410Z,101443.53
2023-05-19T19:02:29.609Z,101444.83
2023-05-19T19:04:59.988Z,101447.59
2023-05-19T19:07:30.834Z,101449.27
2023-05-19T19:10:02.445Z,101451.52
2023-05-19T19:12:41.419Z,101452.81
2023-05-19T19:15:10.105Z,101449.41
2023-05-19T19:17:42.816Z,101450.02
2023-05-19T19:23:34.488Z,101451.78
2023-05-19T19:26:02.354Z,101451.65
2023-05-19T19:28:31.054Z,101452.72
2023-05-19T19:30:58.829Z,101456.46
2023-05-19T19:33:27.834Z,101455.04
2023-05-19T19:35:55.585Z,101459.35
2023-05-19T19:38:23.381Z,101460.14
2023-05-19T19:41:58.946Z,101461.87
2023-05-19T19:49:14.555Z,101464.72
2023-05-19T20:04:29.905Z,101470.94
2023-05-19T23:38:55.948Z,101463.14
